createdAt,value
2023-03-30T00:02:12.302Z,3.06
2023-03-30T00:04:42.661Z,3.03
2023-03-30T00:07:10.518Z,3.02
2023-03-30T00:09:42.079Z,3.05
2023-03-30T00:12:10.347Z,3.06
2023-03-30T00:14:37.702Z,3.04
2023-03-30T00:17:09.575Z,3.03
2023-03-30T00:19:37.326Z,3.03
2023-03-30T00:22:06.217Z,3.07
2023-03-30T00:24:34.185Z,3.11
2023-03-30T00:27:01.886Z,3.15
2023-03-30T00:29:29.213Z,3.21
2023-03-30T00:31:57.156Z,3.24
2023-03-30T00:34:25.138Z,3.27
2023-03-30T00:36:57.757Z,3.31
2023-03-30T00:39:26.171Z,3.34
2023-03-30T00:41:53.548Z,3.29
2023-03-30T00:44:40.561Z,3.28
2023-03-30T00:47:07.915Z,3.33
2023-03-30T00:49:35.505Z,3.36
2023-03-30T00:52:04.973Z,3.30
2023-03-30T00:54:32.428Z,3.20
2023-03-30T00:56:59.887Z,3.11
2023-03-30T00:59:27.388Z,3.07
2023-03-30T01:01:54.868Z,2.93
2023-03-30T01:04:25.581Z,2.84
2023-03-30T01:06:54.943Z,2.85
2023-03-30T01:09:22.926Z,2.90
2023-03-30T01:11:50.920Z,2.98
2023-03-30T01:14:19.220Z,3.07
2023-03-30T01:16:55.520Z,3.07
2023-03-30T01:19:43.252Z,3.00
2023-03-30T01:22:30.270Z,2.93
2023-03-30T01:24:58.260Z,2.91
2023-03-30T01:27:39.003Z,2.85
2023-03-30T01:30:14.286Z,2.84
2023-03-30T01:33:01.322Z,2.74
2023-03-30T01:35:35.721Z,2.69
2023-03-30T01:38:22.283Z,2.67
2023-03-30T01:40:53.030Z,2.65
2023-03-30T01:43:25.514Z,2.65
2023-03-30T01:45:55.611Z,2.67
2023-03-30T01:48:25.933Z,2.64
2023-03-30T01:50:54.013Z,2.57
2023-03-30T01:53:40.201Z,2.48
2023-03-30T01:56:08.989Z,2.45
2023-03-30T01:58:38.494Z,2.42
2023-03-30T02:01:10.465Z,2.34
2023-03-30T02:03:39.317Z,2.23
2023-03-30T02:06:26.153Z,2.16
2023-03-30T02:08:54.429Z,2.16
2023-03-30T02:11:23.222Z,2.15
2023-03-30T02:13:50.878Z,2.17
2023-03-30T02:16:24.226Z,2.25
2023-03-30T02:18:54.188Z,2.22
2023-03-30T02:21:22.158Z,2.19
2023-03-30T02:23:49.720Z,2.16
2023-03-30T02:26:17.074Z,2.11
2023-03-30T02:28:51.802Z,2.10
2023-03-30T02:31:19.268Z,2.16
2023-03-30T02:34:05.052Z,2.22
2023-03-30T02:36:37.007Z,2.25
2023-03-30T02:39:06.416Z,2.29
2023-03-30T02:41:36.421Z,2.35
2023-03-30T02:44:27.431Z,2.46
2023-03-30T02:47:08.580Z,2.61
2023-03-30T02:49:41.496Z,2.74
2023-03-30T02:52:33.260Z,2.79
2023-03-30T02:55:04.361Z,2.89
2023-03-30T02:57:56.601Z,3.02
2023-03-30T03:00:53.382Z,3.11
2023-03-30T03:03:34.451Z,3.18
2023-03-30T03:06:04.851Z,3.22
2023-03-30T03:08:36.816Z,3.20
2023-03-30T03:11:05.116Z,3.16
2023-03-30T03:13:38.713Z,3.12
2023-03-30T03:16:07.781Z,3.05
2023-03-30T03:18:39.432Z,3.02
2023-03-30T03:21:08.529Z,2.99
2023-03-30T03:23:36.600Z,2.88
2023-03-30T03:26:05.590Z,2.84
2023-03-30T03:28:34.425Z,2.88
2023-03-30T03:31:06.289Z,2.96
2023-03-30T03:33:35.534Z,3.06
2023-03-30T03:36:24.907Z,3.15
2023-03-30T03:38:53.905Z,3.15
2023-03-30T03:41:21.372Z,3.13
2023-03-30T03:43:48.708Z,3.12
2023-03-30T03:46:17.207Z,3.13
2023-03-30T03:48:47.120Z,3.11
2023-03-30T03:51:16.814Z,3.10
2023-03-30T03:53:49.398Z,3.10
2023-03-30T03:56:16.903Z,3.09
2023-03-30T03:58:46.656Z,3.07
2023-03-30T04:01:15.547Z,3.07
2023-03-30T04:03:44.145Z,3.09
2023-03-30T04:06:13.562Z,3.13
2023-03-30T04:08:41.485Z,3.14
2023-03-30T04:11:23.912Z,3.19
2023-03-30T04:14:06.019Z,3.27
2023-03-30T04:16:45.878Z,3.37
2023-03-30T04:19:37.300Z,3.45
2023-03-30T04:22:23.885Z,3.49
2023-03-30T04:25:05.299Z,3.43
2023-03-30T04:28:08.458Z,3.36
2023-03-30T04:31:12.473Z,3.26
2023-03-30T04:34:02.198Z,3.13
2023-03-30T04:37:06.785Z,3.05
2023-03-30T04:40:07.513Z,3.07
2023-03-30T04:42:55.147Z,3.05
2023-03-30T04:45:41.691Z,3.01
2023-03-30T04:48:29.281Z,2.99
2023-03-30T04:51:19.802Z,3.01
2023-03-30T04:54:09.050Z,3.04
2023-03-30T04:56:55.059Z,3.07
2023-03-30T04:59:37.650Z,3.07
2023-03-30T05:02:23.712Z,3.07
2023-03-30T05:05:09.537Z,3.06
2023-03-30T05:07:56.926Z,3.08
2023-03-30T05:10:33.862Z,3.09
2023-03-30T05:13:16.643Z,3.05
2023-03-30T05:16:07.513Z,3.03
2023-03-30T05:18:58.047Z,3.05
2023-03-30T05:21:41.072Z,3.11
2023-03-30T05:24:40.988Z,3.13
2023-03-30T05:27:18.116Z,3.10
2023-03-30T05:29:51.259Z,3.06
2023-03-30T05:32:24.907Z,3.00
2023-03-30T05:35:25.907Z,2.97
2023-03-30T05:38:14.460Z,2.97
2023-03-30T05:41:09.329Z,2.95
2023-03-30T05:44:04.560Z,2.96
2023-03-30T05:46:50.682Z,2.99
2023-03-30T05:49:41.563Z,3.06
2023-03-30T05:52:28.473Z,3.11
2023-03-30T05:55:07.534Z,3.14
2023-03-30T05:57:49.470Z,3.10
2023-03-30T06:00:33.097Z,3.09
2023-03-30T06:03:12.678Z,3.13
2023-03-30T06:05:43.408Z,3.21
2023-03-30T06:08:11.681Z,3.22
2023-03-30T06:10:41.802Z,3.20
2023-03-30T06:13:10.721Z,3.14
2023-03-30T06:15:50.535Z,3.09
2023-03-30T06:18:22.294Z,3.07
2023-03-30T06:20:55.824Z,3.08
2023-03-30T06:23:24.478Z,3.05
2023-03-30T06:25:54.195Z,3.06
2023-03-30T06:28:28.308Z,3.07
2023-03-30T06:30:57.138Z,3.05
2023-03-30T06:33:25.831Z,3.05
2023-03-30T06:35:57.652Z,3.05
2023-03-30T06:38:25.496Z,3.04
2023-03-30T06:40:53.873Z,3.06
2023-03-30T06:43:24.001Z,3.11
2023-03-30T06:46:12.313Z,3.13
2023-03-30T06:48:43.177Z,3.13
2023-03-30T06:51:36.865Z,3.15
2023-03-30T06:54:04.979Z,3.20
2023-03-30T06:56:33.226Z,3.29
2023-03-30T06:59:19.796Z,3.35
2023-03-30T07:02:20.739Z,3.30
2023-03-30T07:05:15.658Z,3.24
2023-03-30T07:07:56.515Z,3.20
2023-03-30T07:10:25.309Z,3.20
2023-03-30T07:12:53.681Z,3.24
2023-03-30T07:15:22.267Z,3.22
2023-03-30T07:17:50.266Z,3.22
2023-03-30T07:20:21.784Z,3.30
2023-03-30T07:23:12.999Z,3.36
2023-03-30T07:25:41.526Z,3.34
2023-03-30T07:28:14.771Z,3.27
2023-03-30T07:30:42.359Z,3.21
2023-03-30T07:33:11.858Z,3.16
2023-03-30T07:35:46.935Z,3.13
2023-03-30T07:38:17.095Z,3.15
2023-03-30T07:40:49.971Z,3.11
2023-03-30T07:43:17.977Z,3.07
2023-03-30T07:45:48.788Z,3.09
2023-03-30T07:48:23.929Z,3.08
2023-03-30T07:50:58.743Z,3.07
2023-03-30T07:53:29.883Z,3.11
2023-03-30T07:55:58.291Z,3.15
2023-03-30T07:58:31.699Z,3.13
2023-03-30T08:01:01.587Z,3.13
2023-03-30T08:03:47.826Z,3.12
2023-03-30T08:06:16.149Z,3.11
2023-03-30T08:08:47.501Z,3.09
2023-03-30T08:11:16.114Z,3.08
2023-03-30T08:13:45.072Z,3.07
2023-03-30T08:16:12.550Z,3.07
2023-03-30T08:18:43.265Z,3.12
2023-03-30T08:21:10.569Z,3.22
2023-03-30T08:23:38.480Z,3.36
2023-03-30T08:26:05.937Z,3.49
2023-03-30T08:28:33.741Z,3.56
2023-03-30T08:31:05.459Z,3.59
2023-03-30T08:33:36.398Z,3.56
2023-03-30T08:36:05.799Z,3.56
2023-03-30T08:38:33.148Z,3.60
2023-03-30T08:41:01.627Z,3.60
2023-03-30T08:43:36.769Z,3.68
2023-03-30T08:46:04.581Z,3.80
2023-03-30T08:48:33.218Z,3.92
2023-03-30T08:51:01.604Z,3.90
2023-03-30T08:53:29.776Z,3.81
2023-03-30T08:55:58.701Z,3.81
2023-03-30T08:58:39.636Z,3.81
2023-03-30T09:01:27.223Z,3.86
2023-03-30T09:04:02.308Z,3.82
2023-03-30T09:06:50.954Z,3.72
2023-03-30T09:09:19.057Z,3.64
2023-03-30T09:11:48.049Z,3.59
2023-03-30T09:14:18.807Z,3.52
2023-03-30T09:16:50.815Z,3.51
2023-03-30T09:19:22.771Z,3.52
2023-03-30T09:21:50.340Z,3.49
2023-03-30T09:24:18.440Z,3.44
2023-03-30T09:26:53.436Z,3.39
2023-03-30T09:29:28.196Z,3.32
2023-03-30T09:32:05.608Z,3.30
2023-03-30T09:34:39.067Z,3.31
2023-03-30T09:37:08.553Z,3.29
2023-03-30T09:39:37.447Z,3.27
2023-03-30T09:42:13.210Z,3.23
2023-03-30T09:44:47.824Z,3.19
2023-03-30T09:47:21.163Z,3.16
2023-03-30T09:49:48.474Z,3.12
2023-03-30T09:52:20.470Z,3.08
2023-03-30T09:54:51.493Z,3.10
2023-03-30T09:57:24.234Z,3.16
2023-03-30T09:59:55.400Z,3.27
2023-03-30T10:02:25.105Z,3.31
2023-03-30T10:04:53.586Z,3.29
2023-03-30T10:07:21.977Z,3.30
2023-03-30T10:09:52.049Z,3.38
2023-03-30T10:12:19.468Z,3.41
2023-03-30T10:14:47.110Z,3.36
2023-03-30T10:17:19.777Z,3.31
2023-03-30T10:19:51.728Z,3.30
2023-03-30T10:22:22.885Z,3.32
2023-03-30T10:24:51.670Z,3.30
2023-03-30T10:27:19.233Z,3.33
2023-03-30T10:29:48.259Z,3.35
2023-03-30T10:32:15.881Z,3.35
2023-03-30T10:35:01.403Z,3.38
2023-03-30T10:37:31.174Z,3.32
2023-03-30T10:39:59.249Z,3.25
2023-03-30T10:42:27.352Z,3.21
2023-03-30T10:44:55.393Z,3.20
2023-03-30T10:47:26.036Z,3.19
2023-03-30T10:49:56.954Z,3.20
2023-03-30T10:52:28.096Z,3.17
2023-03-30T10:55:02.926Z,3.18
2023-03-30T10:57:50.657Z,3.24
2023-03-30T11:00:24.103Z,3.32
2023-03-30T11:02:53.442Z,3.35
2023-03-30T11:05:22.554Z,3.32
2023-03-30T11:07:56.665Z,3.32
2023-03-30T11:10:32.054Z,3.32
2023-03-30T11:13:03.454Z,3.33
2023-03-30T11:15:35.727Z,3.31
2023-03-30T11:18:09.646Z,3.32
2023-03-30T11:20:39.859Z,3.34
2023-03-30T11:23:18.080Z,3.35
2023-03-30T11:25:49.617Z,3.39
2023-03-30T11:28:35.619Z,3.43
2023-03-30T11:31:04.926Z,3.44
2023-03-30T11:33:46.624Z,3.44
2023-03-30T11:36:18.273Z,3.41
2023-03-30T11:38:51.902Z,3.37
2023-03-30T11:41:24.425Z,3.35
2023-03-30T11:43:55.943Z,3.35
2023-03-30T11:46:34.153Z,3.40
2023-03-30T11:49:04.524Z,3.45
2023-03-30T11:51:32.377Z,3.47
2023-03-30T11:54:07.419Z,3.48
2023-03-30T11:56:54.124Z,3.49
2023-03-30T11:59:21.646Z,3.53
2023-03-30T12:01:52.672Z,3.53
2023-03-30T12:04:27.489Z,3.49
2023-03-30T12:06:59.717Z,3.47
2023-03-30T12:09:33.095Z,3.54
2023-03-30T12:12:21.361Z,3.57
2023-03-30T12:14:55.941Z,3.60
2023-03-30T12:17:46.729Z,3.69
2023-03-30T12:20:20.802Z,3.76
2023-03-30T12:22:51.222Z,3.78
2023-03-30T12:25:22.926Z,3.75
2023-03-30T12:27:52.063Z,3.73
2023-03-30T12:30:26.391Z,3.73
2023-03-30T12:32:56.524Z,3.71
2023-03-30T12:35:44.546Z,3.71
2023-03-30T12:38:19.244Z,3.66
2023-03-30T12:40:52.169Z,3.61
2023-03-30T12:43:25.534Z,3.63
2023-03-30T12:46:01.823Z,3.66
2023-03-30T12:48:39.107Z,3.70
2023-03-30T12:51:19.496Z,3.72
2023-03-30T12:53:52.965Z,3.76
2023-03-30T12:56:31.083Z,3.81
2023-03-30T12:59:02.605Z,3.86
2023-03-30T13:01:30.307Z,3.89
2023-03-30T13:03:59.333Z,3.94
2023-03-30T13:06:34.567Z,3.98
2023-03-30T13:09:12.829Z,3.97
2023-03-30T13:11:42.595Z,3.93
2023-03-30T13:14:25.867Z,3.90
2023-03-30T13:16:53.262Z,3.91
2023-03-30T13:19:26.008Z,3.91
2023-03-30T13:21:57.456Z,3.91
2023-03-30T13:24:26.066Z,3.86
2023-03-30T13:26:54.122Z,3.85
2023-03-30T13:29:22.021Z,3.85
2023-03-30T13:31:57.766Z,3.85
2023-03-30T13:34:33.277Z,3.87
2023-03-30T13:37:00.925Z,3.87
2023-03-30T13:39:55.005Z,3.85
2023-03-30T13:42:37.216Z,3.88
2023-03-30T13:45:08.552Z,3.88
2023-03-30T13:47:39.254Z,3.88
2023-03-30T13:50:11.967Z,3.89
2023-03-30T13:52:40.965Z,3.91
2023-03-30T13:55:09.979Z,3.96
2023-03-30T13:57:43.759Z,3.99
2023-03-30T14:00:45.269Z,4.03
2023-03-30T14:03:32.306Z,4.07
2023-03-30T14:06:03.812Z,4.11
2023-03-30T14:08:36.255Z,4.15
2023-03-30T14:11:26.745Z,4.19
2023-03-30T14:13:56.649Z,4.21
2023-03-30T14:16:24.941Z,4.23
2023-03-30T14:19:08.113Z,4.23
2023-03-30T14:21:37.623Z,4.21
2023-03-30T14:24:05.949Z,4.21
2023-03-30T14:26:34.021Z,4.22
2023-03-30T14:29:08.031Z,4.25
2023-03-30T14:31:39.735Z,4.22
2023-03-30T14:34:30.524Z,4.20
2023-03-30T14:36:59.217Z,4.22
2023-03-30T14:39:27.148Z,4.27
2023-03-30T14:41:56.354Z,4.32
2023-03-30T14:44:24.355Z,4.33
2023-03-30T14:46:52.519Z,4.33
2023-03-30T14:49:22.190Z,4.38
2023-03-30T14:51:53.551Z,4.43
2023-03-30T14:54:21.819Z,4.45
2023-03-30T14:56:57.426Z,4.45
2023-03-30T14:59:26.252Z,4.47
2023-03-30T15:01:54.534Z,4.50
2023-03-30T15:04:25.100Z,4.56
2023-03-30T15:06:53.274Z,4.64
2023-03-30T15:09:22.762Z,4.71
2023-03-30T15:11:51.556Z,4.72
2023-03-30T15:14:20.343Z,4.70
2023-03-30T15:16:50.212Z,4.69
2023-03-30T15:19:21.081Z,4.72
2023-03-30T15:21:50.149Z,4.73
2023-03-30T15:24:17.710Z,4.74
2023-03-30T15:26:46.088Z,4.76
2023-03-30T15:29:14.398Z,4.79
2023-03-30T15:31:44.699Z,4.80
2023-03-30T15:34:16.393Z,4.80
2023-03-30T15:36:44.206Z,4.79
2023-03-30T15:39:20.876Z,4.75
2023-03-30T15:41:49.258Z,4.72
2023-03-30T15:44:20.198Z,4.75
2023-03-30T15:46:51.298Z,4.76
2023-03-30T15:49:19.204Z,4.77
2023-03-30T15:51:51.911Z,4.80
2023-03-30T15:54:20.976Z,4.82
2023-03-30T15:56:59.614Z,4.85
2023-03-30T15:59:30.371Z,4.90
2023-03-30T16:02:01.409Z,4.94
2023-03-30T16:04:30.471Z,4.99
2023-03-30T16:06:57.830Z,5.05
2023-03-30T16:09:25.276Z,5.08
2023-03-30T16:11:55.225Z,5.10
2023-03-30T16:14:22.956Z,5.13
2023-03-30T16:16:50.953Z,5.15
2023-03-30T16:19:19.120Z,5.15
2023-03-30T16:21:46.720Z,5.13
2023-03-30T16:24:14.315Z,5.07
2023-03-30T16:26:41.876Z,5.02
2023-03-30T16:29:21.141Z,4.99
2023-03-30T16:31:50.111Z,4.96
2023-03-30T16:34:17.808Z,4.90
2023-03-30T16:36:46.039Z,4.83
2023-03-30T16:39:17.391Z,4.79
2023-03-30T16:41:50.729Z,4.74
2023-03-30T16:44:19.571Z,4.60
2023-03-30T16:46:47.743Z,4.48
2023-03-30T16:49:17.453Z,4.43
2023-03-30T16:51:45.055Z,4.41
2023-03-30T16:54:30.479Z,4.36
2023-03-30T16:57:01.381Z,4.25
2023-03-30T16:59:34.320Z,4.15
2023-03-30T17:02:02.734Z,4.07
2023-03-30T17:04:30.454Z,4.02
2023-03-30T17:06:58.430Z,4.00
2023-03-30T17:09:26.799Z,3.99
2023-03-30T17:11:54.363Z,3.95
2023-03-30T17:14:22.940Z,3.95
2023-03-30T17:16:50.232Z,3.93
2023-03-30T17:19:21.342Z,3.90
2023-03-30T17:21:48.832Z,3.86
2023-03-30T17:24:16.554Z,3.80
2023-03-30T17:26:44.967Z,3.73
2023-03-30T17:29:12.241Z,3.67
2023-03-30T17:31:45.072Z,3.60
2023-03-30T17:34:13.342Z,3.58
2023-03-30T17:36:40.902Z,3.55
2023-03-30T17:39:11.790Z,3.52
2023-03-30T17:41:39.401Z,3.53
2023-03-30T17:44:09.927Z,3.50
2023-03-30T17:46:39.295Z,3.45
2023-03-30T17:49:11.396Z,3.37
2023-03-30T17:51:39.126Z,3.32
2023-03-30T17:54:07.848Z,3.31
2023-03-30T17:56:35.306Z,3.30
2023-03-30T17:59:02.838Z,3.30
2023-03-30T18:01:30.552Z,3.32
2023-03-30T18:03:58.364Z,3.31
2023-03-30T18:06:25.950Z,3.25
2023-03-30T18:08:54.147Z,3.23
2023-03-30T18:11:22.119Z,3.23
2023-03-30T18:13:51.902Z,3.25
2023-03-30T18:16:24.006Z,3.26
2023-03-30T18:18:51.835Z,3.25
2023-03-30T18:21:19.607Z,3.21
2023-03-30T18:23:48.092Z,3.16
2023-03-30T18:26:15.692Z,3.08
2023-03-30T18:28:46.299Z,3.06
2023-03-30T18:31:15.286Z,3.05
2023-03-30T18:33:42.820Z,3.03
2023-03-30T18:36:12.294Z,3.02
2023-03-30T18:38:41.229Z,3.01
2023-03-30T18:41:09.592Z,2.96
2023-03-30T18:43:38.454Z,2.90
2023-03-30T18:46:06.031Z,2.79
2023-03-30T18:48:33.708Z,2.69
2023-03-30T18:51:02.592Z,2.62
2023-03-30T18:53:30.075Z,2.57
2023-03-30T18:55:59.787Z,2.57
2023-03-30T18:58:28.232Z,2.56
2023-03-30T19:00:57.751Z,2.51
2023-03-30T19:03:27.074Z,2.46
2023-03-30T19:05:54.987Z,2.44
2023-03-30T19:08:23.290Z,2.43
2023-03-30T19:10:51.453Z,2.48
2023-03-30T19:13:19.281Z,2.56
2023-03-30T19:15:49.343Z,2.65
2023-03-30T19:18:20.484Z,2.72
2023-03-30T19:20:50.306Z,2.74
2023-03-30T19:23:21.463Z,2.73
2023-03-30T19:25:49.323Z,2.73
2023-03-30T19:28:17.057Z,2.71
2023-03-30T19:30:46.629Z,2.69
2023-03-30T19:33:15.874Z,2.68
2023-03-30T19:35:48.098Z,2.68
2023-03-30T19:38:16.500Z,2.66
2023-03-30T19:40:44.186Z,2.64
2023-03-30T19:43:11.563Z,2.61
2023-03-30T19:45:39.287Z,2.61
2023-03-30T19:48:06.951Z,2.63
2023-03-30T19:50:34.800Z,2.63
2023-03-30T19:53:08.857Z,2.60
2023-03-30T19:55:36.713Z,2.59
2023-03-30T19:58:04.220Z,2.58
2023-03-30T20:00:34.384Z,2.57
2023-03-30T20:03:10.458Z,2.57
2023-03-30T20:05:38.410Z,2.61
2023-03-30T20:08:16.991Z,2.66
2023-03-30T20:10:49.557Z,2.72
2023-03-30T20:13:21.464Z,2.78
2023-03-30T20:15:49.494Z,2.86
2023-03-30T20:18:18.018Z,2.93
2023-03-30T20:20:45.787Z,3.01
2023-03-30T20:23:13.745Z,3.07
2023-03-30T20:25:45.958Z,3.12
2023-03-30T20:28:13.675Z,3.19
2023-03-30T20:30:41.137Z,3.26
2023-03-30T20:33:08.893Z,3.31
2023-03-30T20:35:37.776Z,3.37
2023-03-30T20:38:05.659Z,3.43
2023-03-30T20:40:35.819Z,3.45
2023-03-30T20:43:09.479Z,3.51
2023-03-30T20:45:45.415Z,3.53
2023-03-30T20:48:29.888Z,3.54
2023-03-30T20:50:57.463Z,3.56
2023-03-30T20:53:25.168Z,3.56
2023-03-30T20:55:52.948Z,3.59
2023-03-30T20:58:21.979Z,3.59
2023-03-30T21:00:51.491Z,3.59
2023-03-30T21:03:20.189Z,3.58
2023-03-30T21:05:47.439Z,3.57
2023-03-30T21:08:17.432Z,3.58
2023-03-30T21:10:44.994Z,3.59
2023-03-30T21:13:14.557Z,3.60
2023-03-30T21:15:42.772Z,3.60
2023-03-30T21:18:10.577Z,3.59
2023-03-30T21:20:38.403Z,3.60
2023-03-30T21:23:06.056Z,3.60
2023-03-30T21:25:34.054Z,3.62
2023-03-30T21:28:07.333Z,3.62
2023-03-30T21:30:35.316Z,3.61
2023-03-30T21:33:03.441Z,3.60
2023-03-30T21:35:31.259Z,3.61
2023-03-30T21:37:58.993Z,3.62
2023-03-30T21:40:26.755Z,3.61
2023-03-30T21:42:54.109Z,3.59
2023-03-30T21:45:21.766Z,3.58
2023-03-30T21:47:49.865Z,3.58
2023-03-30T21:50:17.605Z,3.58
2023-03-30T21:52:45.162Z,3.59
2023-03-30T21:55:12.411Z,3.61
2023-03-30T21:57:39.966Z,3.62
2023-03-30T22:00:09.595Z,3.61
2023-03-30T22:03:00.165Z,3.62
2023-03-30T22:05:30.087Z,3.65
2023-03-30T22:07:57.577Z,3.66
2023-03-30T22:10:25.469Z,3.67
2023-03-30T22:12:54.418Z,3.68
2023-03-30T22:15:21.970Z,3.66
2023-03-30T22:17:49.181Z,3.67
2023-03-30T22:20:17.798Z,3.67
2023-03-30T22:22:45.666Z,3.68
2023-03-30T22:25:13.058Z,3.69
2023-03-30T22:27:40.373Z,3.69
2023-03-30T22:30:08.092Z,3.69
2023-03-30T22:32:40.927Z,3.69
2023-03-30T22:35:08.883Z,3.68
2023-03-30T22:37:36.568Z,3.68
2023-03-30T22:40:05.651Z,3.68
2023-03-30T22:42:33.303Z,3.68
2023-03-30T22:45:00.762Z,3.69
2023-03-30T22:47:28.352Z,3.67
2023-03-30T22:49:55.918Z,3.66
2023-03-30T22:52:23.645Z,3.63
2023-03-30T22:54:51.103Z,3.62
2023-03-30T22:57:18.508Z,3.61
2023-03-30T22:59:46.252Z,3.60
2023-03-30T23:02:16.332Z,3.59
2023-03-30T23:04:48.293Z,3.58
2023-03-30T23:07:15.579Z,3.56
2023-03-30T23:09:46.893Z,3.55
2023-03-30T23:12:14.656Z,3.56
2023-03-30T23:14:42.629Z,3.56
2023-03-30T23:17:10.024Z,3.55
2023-03-30T23:19:37.681Z,3.54
2023-03-30T23:22:05.708Z,3.52
2023-03-30T23:24:33.392Z,3.49
2023-03-30T23:27:00.716Z,3.45
2023-03-30T23:29:32.571Z,3.42
2023-03-30T23:32:00.142Z,3.42
2023-03-30T23:34:27.904Z,3.40
2023-03-30T23:36:55.993Z,3.40
2023-03-30T23:39:25.618Z,3.41
2023-03-30T23:41:53.351Z,3.41
2023-03-30T23:44:20.404Z,3.39
2023-03-30T23:46:47.478Z,3.35
2023-03-30T23:49:14.490Z,3.33
2023-03-30T23:51:41.759Z,3.33
2023-03-30T23:54:08.789Z,3.31
2023-03-30T23:56:37.993Z,3.28
2023-03-30T23:59:05.550Z,3.26
